sensor_id;sensor_type;location;lat;lon;timestamp;pressure;altitude;pressure_sealevel;temperature;humidity
41706;BME280;27385;51.096;17.190;2022-10-16T00:00:43;100251.65;;;12.13;92.40
41706;BME280;27385;51.096;17.190;2022-10-16T00:03:34;100244.97;;;12.11;92.41
41706;BME280;27385;51.096;17.190;2022-10-16T00:06:07;100249.42;;;12.10;92.36
41706;BME280;27385;51.096;17.190;2022-10-16T00:08:39;100256.44;;;12.10;92.55
41706;BME280;27385;51.096;17.190;2022-10-16T00:11:13;100255.52;;;12.10;92.50
41706;BME280;27385;51.096;17.190;2022-10-16T00:13:46;100260.27;;;12.11;92.59
41706;BME280;27385;51.096;17.190;2022-10-16T00:16:18;100260.88;;;12.11;92.74
41706;BME280;27385;51.096;17.190;2022-10-16T00:18:50;100257.27;;;12.11;92.87
41706;BME280;27385;51.096;17.190;2022-10-16T00:21:23;100254.09;;;12.10;92.84
41706;BME280;27385;51.096;17.190;2022-10-16T00:23:56;100251.84;;;12.09;93.17
41706;BME280;27385;51.096;17.190;2022-10-16T00:26:29;100257.74;;;12.09;93.29
41706;BME280;27385;51.096;17.190;2022-10-16T00:29:01;100257.36;;;12.10;93.34
41706;BME280;27385;51.096;17.190;2022-10-16T00:31:33;100261.23;;;12.11;93.57
41706;BME280;27385;51.096;17.190;2022-10-16T00:34:06;100254.47;;;12.11;93.65
41706;BME280;27385;51.096;17.190;2022-10-16T00:36:37;100250.71;;;12.12;93.54
41706;BME280;27385;51.096;17.190;2022-10-16T00:39:09;100259.64;;;12.14;93.54
41706;BME280;27385;51.096;17.190;2022-10-16T00:41:40;100255.73;;;12.13;93.57
41706;BME280;27385;51.096;17.190;2022-10-16T00:44:44;100254.16;;;12.14;93.29
41706;BME280;27385;51.096;17.190;2022-10-16T00:47:21;100253.14;;;12.14;93.26
41706;BME280;27385;51.096;17.190;2022-10-16T00:49:58;100253.27;;;12.13;93.33
41706;BME280;27385;51.096;17.190;2022-10-16T00:52:30;100253.52;;;12.11;93.19
41706;BME280;27385;51.096;17.190;2022-10-16T00:55:02;100253.30;;;12.11;93.15
41706;BME280;27385;51.096;17.190;2022-10-16T00:57:35;100250.59;;;12.11;93.12
41706;BME280;27385;51.096;17.190;2022-10-16T01:00:10;100249.90;;;12.09;93.21
41706;BME280;27385;51.096;17.190;2022-10-16T01:02:41;100253.31;;;12.08;93.19
41706;BME280;27385;51.096;17.190;2022-10-16T01:05:13;100255.25;;;12.08;93.19
41706;BME280;27385;51.096;17.190;2022-10-16T01:07:53;100256.15;;;12.07;93.21
41706;BME280;27385;51.096;17.190;2022-10-16T01:10:33;100256.19;;;12.07;93.39
41706;BME280;27385;51.096;17.190;2022-10-16T01:13:09;100254.13;;;12.05;93.38
41706;BME280;27385;51.096;17.190;2022-10-16T01:15:44;100256.54;;;12.02;93.47
41706;BME280;27385;51.096;17.190;2022-10-16T01:18:24;100262.27;;;12.00;93.78
41706;BME280;27385;51.096;17.190;2022-10-16T01:21:03;100265.19;;;11.98;93.90
41706;BME280;27385;51.096;17.190;2022-10-16T01:23:48;100251.45;;;11.98;93.97
41706;BME280;27385;51.096;17.190;2022-10-16T01:26:41;100250.44;;;11.99;94.14
41706;BME280;27385;51.096;17.190;2022-10-16T01:29:20;100250.96;;;11.99;94.12
41706;BME280;27385;51.096;17.190;2022-10-16T01:31:56;100258.65;;;12.00;94.04
41706;BME280;27385;51.096;17.190;2022-10-16T01:34:33;100263.79;;;12.00;94.22
41706;BME280;27385;51.096;17.190;2022-10-16T01:37:09;100268.88;;;12.01;94.25
41706;BME280;27385;51.096;17.190;2022-10-16T01:39:45;100262.07;;;12.01;94.20
41706;BME280;27385;51.096;17.190;2022-10-16T01:42:20;100258.02;;;12.02;94.45
41706;BME280;27385;51.096;17.190;2022-10-16T01:44:54;100254.40;;;12.02;94.37
41706;BME280;27385;51.096;17.190;2022-10-16T01:47:28;100249.81;;;12.02;94.34
41706;BME280;27385;51.096;17.190;2022-10-16T01:50:02;100250.34;;;12.03;94.38
41706;BME280;27385;51.096;17.190;2022-10-16T01:52:37;100250.36;;;12.04;94.39
41706;BME280;27385;51.096;17.190;2022-10-16T01:55:12;100250.02;;;12.05;94.19
41706;BME280;27385;51.096;17.190;2022-10-16T01:57:46;100259.58;;;12.05;94.27
41706;BME280;27385;51.096;17.190;2022-10-16T02:00:21;100259.26;;;12.04;94.37
41706;BME280;27385;51.096;17.190;2022-10-16T02:02:54;100258.43;;;12.03;94.54
41706;BME280;27385;51.096;17.190;2022-10-16T02:05:28;100261.65;;;12.00;94.67
41706;BME280;27385;51.096;17.190;2022-10-16T02:08:04;100266.82;;;11.99;94.79
41706;BME280;27385;51.096;17.190;2022-10-16T02:10:36;100270.27;;;11.98;95.05
41706;BME280;27385;51.096;17.190;2022-10-16T02:13:10;100267.58;;;11.98;94.97
41706;BME280;27385;51.096;17.190;2022-10-16T02:15:43;100263.83;;;11.99;94.98
41706;BME280;27385;51.096;17.190;2022-10-16T02:18:14;100263.48;;;12.00;95.20
41706;BME280;27385;51.096;17.190;2022-10-16T02:20:50;100268.42;;;12.00;95.24
41706;BME280;27385;51.096;17.190;2022-10-16T02:23:30;100268.52;;;12.01;95.09
41706;BME280;27385;51.096;17.190;2022-10-16T02:26:08;100271.75;;;12.02;95.13
41706;BME280;27385;51.096;17.190;2022-10-16T02:28:44;100275.84;;;12.03;95.19
41706;BME280;27385;51.096;17.190;2022-10-16T02:31:21;100273.90;;;12.03;95.11
41706;BME280;27385;51.096;17.190;2022-10-16T02:33:59;100279.56;;;12.04;95.00
41706;BME280;27385;51.096;17.190;2022-10-16T02:36:31;100276.62;;;12.05;94.92
41706;BME280;27385;51.096;17.190;2022-10-16T02:39:05;100288.33;;;12.05;94.88
41706;BME280;27385;51.096;17.190;2022-10-16T02:41:37;100293.88;;;12.06;94.86
41706;BME280;27385;51.096;17.190;2022-10-16T02:44:09;100295.02;;;12.07;94.86
41706;BME280;27385;51.096;17.190;2022-10-16T02:46:41;100299.10;;;12.08;94.89
41706;BME280;27385;51.096;17.190;2022-10-16T02:49:12;100298.14;;;12.09;94.76
41706;BME280;27385;51.096;17.190;2022-10-16T02:51:44;100291.67;;;12.08;94.66
41706;BME280;27385;51.096;17.190;2022-10-16T02:54:17;100291.05;;;12.08;94.69
41706;BME280;27385;51.096;17.190;2022-10-16T02:56:48;100288.15;;;12.07;94.59
41706;BME280;27385;51.096;17.190;2022-10-16T02:59:20;100290.08;;;12.07;94.63
41706;BME280;27385;51.096;17.190;2022-10-16T03:01:51;100291.89;;;12.06;94.66
41706;BME280;27385;51.096;17.190;2022-10-16T03:04:22;100290.67;;;12.06;94.76
41706;BME280;27385;51.096;17.190;2022-10-16T03:06:53;100294.55;;;12.07;94.52
41706;BME280;27385;51.096;17.190;2022-10-16T03:09:25;100295.17;;;12.07;94.70
41706;BME280;27385;51.096;17.190;2022-10-16T03:11:56;100295.38;;;12.08;94.74
41706;BME280;27385;51.096;17.190;2022-10-16T03:14:28;100295.84;;;12.08;94.59
41706;BME280;27385;51.096;17.190;2022-10-16T03:16:59;100303.59;;;12.08;94.86
41706;BME280;27385;51.096;17.190;2022-10-16T03:19:30;100309.64;;;12.09;94.93
41706;BME280;27385;51.096;17.190;2022-10-16T03:22:02;100307.96;;;12.09;94.92
41706;BME280;27385;51.096;17.190;2022-10-16T03:24:33;100314.13;;;12.09;94.92
41706;BME280;27385;51.096;17.190;2022-10-16T03:27:05;100312.69;;;12.08;94.84
41706;BME280;27385;51.096;17.190;2022-10-16T03:29:36;100309.20;;;12.10;95.02
41706;BME280;27385;51.096;17.190;2022-10-16T03:32:08;100317.23;;;12.10;94.91
41706;BME280;27385;51.096;17.190;2022-10-16T03:34:39;100316.95;;;12.11;94.98
41706;BME280;27385;51.096;17.190;2022-10-16T03:37:11;100319.36;;;12.12;94.85
41706;BME280;27385;51.096;17.190;2022-10-16T03:39:43;100315.59;;;12.12;95.00
41706;BME280;27385;51.096;17.190;2022-10-16T03:42:14;100318.41;;;12.13;95.05
41706;BME280;27385;51.096;17.190;2022-10-16T03:44:46;100320.73;;;12.15;95.08
41706;BME280;27385;51.096;17.190;2022-10-16T03:47:17;100325.00;;;12.15;95.17
41706;BME280;27385;51.096;17.190;2022-10-16T03:49:52;100324.40;;;12.16;95.32
41706;BME280;27385;51.096;17.190;2022-10-16T03:52:24;100330.98;;;12.17;95.33
41706;BME280;27385;51.096;17.190;2022-10-16T03:54:57;100333.60;;;12.19;95.46
41706;BME280;27385;51.096;17.190;2022-10-16T03:57:29;100332.70;;;12.19;95.53
41706;BME280;27385;51.096;17.190;2022-10-16T04:00:00;100327.61;;;12.21;95.90
41706;BME280;27385;51.096;17.190;2022-10-16T04:02:31;100327.35;;;12.21;95.81
41706;BME280;27385;51.096;17.190;2022-10-16T04:05:03;100324.27;;;12.22;96.10
41706;BME280;27385;51.096;17.190;2022-10-16T04:07:34;100326.52;;;12.23;96.20
41706;BME280;27385;51.096;17.190;2022-10-16T04:10:07;100329.42;;;12.23;96.53
41706;BME280;27385;51.096;17.190;2022-10-16T04:12:38;100332.86;;;12.25;96.51
41706;BME280;27385;51.096;17.190;2022-10-16T04:15:11;100330.64;;;12.26;96.52
41706;BME280;27385;51.096;17.190;2022-10-16T04:17:42;100332.73;;;12.27;96.64
41706;BME280;27385;51.096;17.190;2022-10-16T04:20:13;100338.55;;;12.28;96.76
41706;BME280;27385;51.096;17.190;2022-10-16T04:22:45;100335.65;;;12.28;96.62
41706;BME280;27385;51.096;17.190;2022-10-16T04:25:16;100345.94;;;12.28;96.70
41706;BME280;27385;51.096;17.190;2022-10-16T04:27:47;100341.58;;;12.29;96.65
41706;BME280;27385;51.096;17.190;2022-10-16T04:30:19;100341.48;;;12.30;96.51
41706;BME280;27385;51.096;17.190;2022-10-16T04:32:51;100340.45;;;12.29;96.69
41706;BME280;27385;51.096;17.190;2022-10-16T04:35:24;100341.52;;;12.29;96.69
41706;BME280;27385;51.096;17.190;2022-10-16T04:37:56;100337.09;;;12.29;96.70
41706;BME280;27385;51.096;17.190;2022-10-16T04:40:28;100338.41;;;12.29;96.67
41706;BME280;27385;51.096;17.190;2022-10-16T04:43:02;100346.08;;;12.28;96.73
41706;BME280;27385;51.096;17.190;2022-10-16T04:45:34;100355.64;;;12.27;96.76
41706;BME280;27385;51.096;17.190;2022-10-16T04:48:05;100357.48;;;12.27;96.46
41706;BME280;27385;51.096;17.190;2022-10-16T04:50:36;100363.92;;;12.27;96.66
41706;BME280;27385;51.096;17.190;2022-10-16T04:53:09;100365.97;;;12.27;96.73
41706;BME280;27385;51.096;17.190;2022-10-16T04:55:41;100364.30;;;12.28;96.76
41706;BME280;27385;51.096;17.190;2022-10-16T04:58:13;100360.63;;;12.28;96.68
41706;BME280;27385;51.096;17.190;2022-10-16T05:00:45;100359.27;;;12.28;96.85
41706;BME280;27385;51.096;17.190;2022-10-16T05:03:17;100354.87;;;12.26;96.84
41706;BME280;27385;51.096;17.190;2022-10-16T05:05:48;100356.61;;;12.27;96.97
41706;BME280;27385;51.096;17.190;2022-10-16T05:08:20;100356.37;;;12.25;96.84
41706;BME280;27385;51.096;17.190;2022-10-16T05:10:52;100362.23;;;12.25;96.79
41706;BME280;27385;51.096;17.190;2022-10-16T05:13:24;100362.68;;;12.25;96.94
41706;BME280;27385;51.096;17.190;2022-10-16T05:15:56;100361.39;;;12.24;96.87
41706;BME280;27385;51.096;17.190;2022-10-16T05:18:28;100363.38;;;12.23;96.95
41706;BME280;27385;51.096;17.190;2022-10-16T05:20:59;100366.98;;;12.23;97.01
41706;BME280;27385;51.096;17.190;2022-10-16T05:23:31;100375.73;;;12.22;97.07
41706;BME280;27385;51.096;17.190;2022-10-16T05:26:02;100381.23;;;12.23;97.13
41706;BME280;27385;51.096;17.190;2022-10-16T05:28:33;100380.67;;;12.23;97.06
41706;BME280;27385;51.096;17.190;2022-10-16T05:31:07;100378.48;;;12.23;97.17
41706;BME280;27385;51.096;17.190;2022-10-16T05:33:39;100373.40;;;12.24;97.09
41706;BME280;27385;51.096;17.190;2022-10-16T05:36:11;100372.25;;;12.25;96.99
41706;BME280;27385;51.096;17.190;2022-10-16T05:38:42;100368.61;;;12.24;97.19
41706;BME280;27385;51.096;17.190;2022-10-16T05:41:14;100368.11;;;12.24;97.25
41706;BME280;27385;51.096;17.190;2022-10-16T05:43:51;100373.68;;;12.25;97.21
41706;BME280;27385;51.096;17.190;2022-10-16T05:46:23;100379.75;;;12.26;97.33
41706;BME280;27385;51.096;17.190;2022-10-16T05:48:55;100381.66;;;12.28;97.29
41706;BME280;27385;51.096;17.190;2022-10-16T05:51:26;100379.44;;;12.30;97.40
41706;BME280;27385;51.096;17.190;2022-10-16T05:53:58;100379.89;;;12.32;97.39
41706;BME280;27385;51.096;17.190;2022-10-16T05:56:29;100382.61;;;12.33;97.59
41706;BME280;27385;51.096;17.190;2022-10-16T05:59:01;100377.94;;;12.35;97.66
41706;BME280;27385;51.096;17.190;2022-10-16T06:01:37;100388.05;;;12.37;97.68
41706;BME280;27385;51.096;17.190;2022-10-16T06:04:09;100388.23;;;12.40;97.71
41706;BME280;27385;51.096;17.190;2022-10-16T06:06:42;100387.31;;;12.43;97.78
41706;BME280;27385;51.096;17.190;2022-10-16T06:09:13;100399.23;;;12.46;97.96
41706;BME280;27385;51.096;17.190;2022-10-16T06:11:45;100408.54;;;12.50;98.22
41706;BME280;27385;51.096;17.190;2022-10-16T06:14:17;100409.56;;;12.53;98.32
41706;BME280;27385;51.096;17.190;2022-10-16T06:16:48;100409.40;;;12.57;98.40
41706;BME280;27385;51.096;17.190;2022-10-16T06:19:20;100410.27;;;12.61;98.53
41706;BME280;27385;51.096;17.190;2022-10-16T06:21:52;100413.70;;;12.65;98.76
41706;BME280;27385;51.096;17.190;2022-10-16T06:24:24;100422.77;;;12.70;98.80
41706;BME280;27385;51.096;17.190;2022-10-16T06:26:55;100422.38;;;12.75;98.74
41706;BME280;27385;51.096;17.190;2022-10-16T06:29:27;100421.83;;;12.80;99.01
41706;BME280;27385;51.096;17.190;2022-10-16T06:31:58;100418.66;;;12.87;99.21
41706;BME280;27385;51.096;17.190;2022-10-16T06:34:30;100424.58;;;12.92;99.10
41706;BME280;27385;51.096;17.190;2022-10-16T06:37:01;100427.91;;;12.97;99.38
41706;BME280;27385;51.096;17.190;2022-10-16T06:39:33;100430.54;;;13.04;99.42
41706;BME280;27385;51.096;17.190;2022-10-16T06:42:04;100432.94;;;13.11;99.73
41706;BME280;27385;51.096;17.190;2022-10-16T06:44:53;100434.91;;;13.18;99.50
41706;BME280;27385;51.096;17.190;2022-10-16T06:47:24;100442.77;;;13.24;99.72
41706;BME280;27385;51.096;17.190;2022-10-16T06:49:56;100444.90;;;13.30;99.81
41706;BME280;27385;51.096;17.190;2022-10-16T06:52:28;100445.02;;;13.37;99.71
41706;BME280;27385;51.096;17.190;2022-10-16T06:55:00;100445.99;;;13.43;99.67
41706;BME280;27385;51.096;17.190;2022-10-16T06:57:32;100452.43;;;13.49;99.83
41706;BME280;27385;51.096;17.190;2022-10-16T07:00:05;100458.77;;;13.56;99.76
41706;BME280;27385;51.096;17.190;2022-10-16T07:02:37;100460.27;;;13.63;99.99
41706;BME280;27385;51.096;17.190;2022-10-16T07:05:09;100465.45;;;13.71;99.96
41706;BME280;27385;51.096;17.190;2022-10-16T07:07:40;100467.72;;;13.78;99.86
41706;BME280;27385;51.096;17.190;2022-10-16T07:10:12;100467.00;;;13.84;99.87
41706;BME280;27385;51.096;17.190;2022-10-16T07:12:44;100468.08;;;13.89;99.86
41706;BME280;27385;51.096;17.190;2022-10-16T07:15:15;100473.91;;;13.96;99.80
41706;BME280;27385;51.096;17.190;2022-10-16T07:17:46;100482.59;;;14.02;99.73
41706;BME280;27385;51.096;17.190;2022-10-16T07:20:19;100479.79;;;14.08;99.71
41706;BME280;27385;51.096;17.190;2022-10-16T07:22:51;100481.52;;;14.14;99.80
41706;BME280;27385;51.096;17.190;2022-10-16T07:25:23;100485.85;;;14.19;99.65
41706;BME280;27385;51.096;17.190;2022-10-16T07:27:54;100487.77;;;14.24;99.73
41706;BME280;27385;51.096;17.190;2022-10-16T07:30:27;100485.66;;;14.26;99.89
41706;BME280;27385;51.096;17.190;2022-10-16T07:32:58;100489.29;;;14.30;99.97
41706;BME280;27385;51.096;17.190;2022-10-16T07:35:31;100490.70;;;14.34;99.97
41706;BME280;27385;51.096;17.190;2022-10-16T07:38:03;100490.48;;;14.37;99.85
41706;BME280;27385;51.096;17.190;2022-10-16T07:40:35;100490.89;;;14.39;99.91
41706;BME280;27385;51.096;17.190;2022-10-16T07:43:06;100491.05;;;14.41;99.81
41706;BME280;27385;51.096;17.190;2022-10-16T07:45:37;100486.08;;;14.44;99.83
41706;BME280;27385;51.096;17.190;2022-10-16T07:48:09;100488.23;;;14.46;99.83
41706;BME280;27385;51.096;17.190;2022-10-16T07:50:41;100489.02;;;14.49;99.84
41706;BME280;27385;51.096;17.190;2022-10-16T07:53:13;100487.25;;;14.52;99.73
41706;BME280;27385;51.096;17.190;2022-10-16T07:55:45;100479.71;;;14.54;99.66
41706;BME280;27385;51.096;17.190;2022-10-16T07:58:17;100480.39;;;14.56;99.63
41706;BME280;27385;51.096;17.190;2022-10-16T08:00:48;100484.48;;;14.58;99.53
41706;BME280;27385;51.096;17.190;2022-10-16T08:03:20;100484.51;;;14.62;99.57
41706;BME280;27385;51.096;17.190;2022-10-16T08:05:51;100493.16;;;14.66;99.60
41706;BME280;27385;51.096;17.190;2022-10-16T08:08:23;100494.02;;;14.71;99.71
41706;BME280;27385;51.096;17.190;2022-10-16T08:10:54;100491.20;;;14.77;99.71
41706;BME280;27385;51.096;17.190;2022-10-16T08:13:26;100494.04;;;14.83;99.61
41706;BME280;27385;51.096;17.190;2022-10-16T08:15:57;100500.91;;;14.89;99.62
41706;BME280;27385;51.096;17.190;2022-10-16T08:18:29;100494.36;;;14.96;99.55
41706;BME280;27385;51.096;17.190;2022-10-16T08:21:01;100499.11;;;15.03;99.47
41706;BME280;27385;51.096;17.190;2022-10-16T08:23:34;100506.09;;;15.09;99.33
41706;BME280;27385;51.096;17.190;2022-10-16T08:26:07;100515.48;;;15.16;99.32
41706;BME280;27385;51.096;17.190;2022-10-16T08:28:39;100511.66;;;15.21;98.99
41706;BME280;27385;51.096;17.190;2022-10-16T08:31:12;100510.71;;;15.26;98.85
41706;BME280;27385;51.096;17.190;2022-10-16T08:33:45;100520.77;;;15.30;98.87
41706;BME280;27385;51.096;17.190;2022-10-16T08:36:17;100522.46;;;15.34;98.72
41706;BME280;27385;51.096;17.190;2022-10-16T08:38:51;100521.98;;;15.36;98.63
41706;BME280;27385;51.096;17.190;2022-10-16T08:47:24;100521.64;;;15.42;97.92
41706;BME280;27385;51.096;17.190;2022-10-16T08:50:02;100523.61;;;15.45;97.92
41706;BME280;27385;51.096;17.190;2022-10-16T08:52:42;100523.94;;;15.48;98.06
41706;BME280;27385;51.096;17.190;2022-10-16T08:55:25;100519.70;;;15.51;97.94
41706;BME280;27385;51.096;17.190;2022-10-16T08:58:00;100530.20;;;15.57;97.66
41706;BME280;27385;51.096;17.190;2022-10-16T09:00:32;100535.28;;;15.62;97.78
41706;BME280;27385;51.096;17.190;2022-10-16T09:03:16;100542.20;;;15.65;97.64
41706;BME280;27385;51.096;17.190;2022-10-16T09:06:12;100544.21;;;15.70;97.64
41706;BME280;27385;51.096;17.190;2022-10-16T09:08:57;100543.46;;;15.76;97.72
41706;BME280;27385;51.096;17.190;2022-10-16T09:11:39;100544.09;;;15.82;97.61
41706;BME280;27385;51.096;17.190;2022-10-16T09:14:23;100548.58;;;15.89;97.43
41706;BME280;27385;51.096;17.190;2022-10-16T09:17:18;100548.43;;;15.98;97.43
41706;BME280;27385;51.096;17.190;2022-10-16T09:19:56;100549.83;;;16.05;97.23
41706;BME280;27385;51.096;17.190;2022-10-16T09:22:33;100552.85;;;16.13;97.01
41706;BME280;27385;51.096;17.190;2022-10-16T09:25:12;100551.74;;;16.21;96.90
41706;BME280;27385;51.096;17.190;2022-10-16T09:27:47;100553.34;;;16.29;96.76
41706;BME280;27385;51.096;17.190;2022-10-16T09:30:21;100554.58;;;16.36;96.56
41706;BME280;27385;51.096;17.190;2022-10-16T09:32:54;100557.04;;;16.42;96.48
41706;BME280;27385;51.096;17.190;2022-10-16T09:35:31;100557.96;;;16.48;96.27
41706;BME280;27385;51.096;17.190;2022-10-16T09:38:03;100556.95;;;16.55;96.38
41706;BME280;27385;51.096;17.190;2022-10-16T09:40:35;100555.73;;;16.61;96.44
41706;BME280;27385;51.096;17.190;2022-10-16T09:43:19;100561.09;;;16.68;96.45
41706;BME280;27385;51.096;17.190;2022-10-16T09:45:57;100558.17;;;16.75;96.40
41706;BME280;27385;51.096;17.190;2022-10-16T09:48:39;100557.19;;;16.81;96.07
41706;BME280;27385;51.096;17.190;2022-10-16T09:51:21;100553.80;;;16.85;96.07
41706;BME280;27385;51.096;17.190;2022-10-16T09:53:58;100556.58;;;16.89;95.97
41706;BME280;27385;51.096;17.190;2022-10-16T09:56:31;100552.56;;;16.93;95.82
41706;BME280;27385;51.096;17.190;2022-10-16T09:59:11;100551.02;;;16.98;95.82
41706;BME280;27385;51.096;17.190;2022-10-16T10:01:46;100548.08;;;17.03;95.71
41706;BME280;27385;51.096;17.190;2022-10-16T10:04:19;100550.67;;;17.07;95.60
41706;BME280;27385;51.096;17.190;2022-10-16T10:06:52;100547.90;;;17.13;95.75
41706;BME280;27385;51.096;17.190;2022-10-16T10:09:26;100545.05;;;17.20;95.43
41706;BME280;27385;51.096;17.190;2022-10-16T10:12:00;100547.17;;;17.31;95.16
41706;BME280;27385;51.096;17.190;2022-10-16T10:14:35;100546.79;;;17.40;94.93
41706;BME280;27385;51.096;17.190;2022-10-16T10:17:17;100550.30;;;17.48;94.59
41706;BME280;27385;51.096;17.190;2022-10-16T10:19:53;100550.48;;;17.58;94.15
41706;BME280;27385;51.096;17.190;2022-10-16T10:22:32;100551.66;;;17.70;94.00
41706;BME280;27385;51.096;17.190;2022-10-16T10:25:31;100549.48;;;17.82;93.65
41706;BME280;27385;51.096;17.190;2022-10-16T10:28:27;100549.16;;;17.94;93.20
41706;BME280;27385;51.096;17.190;2022-10-16T10:31:06;100547.74;;;18.07;92.67
41706;BME280;27385;51.096;17.190;2022-10-16T10:33:48;100545.74;;;18.21;92.31
41706;BME280;27385;51.096;17.190;2022-10-16T10:36:36;100552.71;;;18.32;92.40
41706;BME280;27385;51.096;17.190;2022-10-16T10:39:14;100549.48;;;18.44;92.03
41706;BME280;27385;51.096;17.190;2022-10-16T10:42:12;100547.20;;;18.54;91.82
41706;BME280;27385;51.096;17.190;2022-10-16T10:45:14;100557.23;;;18.66;91.45
41706;BME280;27385;51.096;17.190;2022-10-16T10:48:02;100552.44;;;18.79;90.56
41706;BME280;27385;51.096;17.190;2022-10-16T10:50:41;100556.61;;;18.89;89.81
41706;BME280;27385;51.096;17.190;2022-10-16T10:53:21;100554.29;;;19.00;89.74
41706;BME280;27385;51.096;17.190;2022-10-16T10:56:03;100546.90;;;19.13;89.18
41706;BME280;27385;51.096;17.190;2022-10-16T10:58:52;100551.54;;;19.25;88.83
41706;BME280;27385;51.096;17.190;2022-10-16T11:01:35;100542.99;;;19.36;87.89
41706;BME280;27385;51.096;17.190;2022-10-16T11:04:32;100544.37;;;19.42;87.28
41706;BME280;27385;51.096;17.190;2022-10-16T11:07:08;100541.49;;;19.46;87.45
41706;BME280;27385;51.096;17.190;2022-10-16T11:09:45;100542.52;;;19.50;87.39
41706;BME280;27385;51.096;17.190;2022-10-16T11:12:21;100535.16;;;19.55;86.99
41706;BME280;27385;51.096;17.190;2022-10-16T11:15:00;100541.07;;;19.63;86.23
41706;BME280;27385;51.096;17.190;2022-10-16T11:17:36;100545.42;;;19.72;85.97
41706;BME280;27385;51.096;17.190;2022-10-16T11:20:17;100536.48;;;19.78;84.95
41706;BME280;27385;51.096;17.190;2022-10-16T11:22:53;100536.58;;;19.86;84.94
41706;BME280;27385;51.096;17.190;2022-10-16T11:25:29;100534.45;;;19.94;84.38
41706;BME280;27385;51.096;17.190;2022-10-16T11:28:03;100531.52;;;20.00;84.00
41706;BME280;27385;51.096;17.190;2022-10-16T11:30:46;100528.03;;;20.06;83.82
41706;BME280;27385;51.096;17.190;2022-10-16T11:33:27;100523.45;;;20.07;83.51
41706;BME280;27385;51.096;17.190;2022-10-16T11:36:06;100529.85;;;20.05;82.78
41706;BME280;27385;51.096;17.190;2022-10-16T11:38:46;100527.84;;;20.02;82.60
41706;BME280;27385;51.096;17.190;2022-10-16T11:41:26;100523.86;;;19.99;82.17
41706;BME280;27385;51.096;17.190;2022-10-16T11:44:12;100521.88;;;19.95;81.74
41706;BME280;27385;51.096;17.190;2022-10-16T11:46:51;100529.31;;;19.94;81.73
41706;BME280;27385;51.096;17.190;2022-10-16T11:49:25;100532.73;;;19.96;81.32
41706;BME280;27385;51.096;17.190;2022-10-16T11:52:02;100538.13;;;20.01;81.50
41706;BME280;27385;51.096;17.190;2022-10-16T11:54:38;100528.30;;;20.06;80.99
41706;BME280;27385;51.096;17.190;2022-10-16T11:57:15;100525.02;;;20.07;80.67
41706;BME280;27385;51.096;17.190;2022-10-16T11:59:51;100523.00;;;20.09;80.71
41706;BME280;27385;51.096;17.190;2022-10-16T12:02:33;100522.02;;;20.12;80.62
41706;BME280;27385;51.096;17.190;2022-10-16T12:05:22;100529.25;;;20.18;80.23
41706;BME280;27385;51.096;17.190;2022-10-16T12:08:04;100539.44;;;20.21;80.02
41706;BME280;27385;51.096;17.190;2022-10-16T12:10:39;100545.89;;;20.20;79.96
41706;BME280;27385;51.096;17.190;2022-10-16T12:13:31;100548.84;;;20.18;79.81
41706;BME280;27385;51.096;17.190;2022-10-16T12:16:23;100546.33;;;20.16;79.44
41706;BME280;27385;51.096;17.190;2022-10-16T12:19:12;100540.35;;;20.13;79.46
41706;BME280;27385;51.096;17.190;2022-10-16T12:21:46;100541.42;;;20.11;78.85
41706;BME280;27385;51.096;17.190;2022-10-16T12:24:37;100547.30;;;20.07;78.71
41706;BME280;27385;51.096;17.190;2022-10-16T12:27:26;100561.30;;;20.05;78.95
41706;BME280;27385;51.096;17.190;2022-10-16T12:30:02;100569.31;;;20.03;78.81
41706;BME280;27385;51.096;17.190;2022-10-16T12:32:37;100576.56;;;20.00;78.51
41706;BME280;27385;51.096;17.190;2022-10-16T12:35:21;100580.53;;;19.97;78.03
41706;BME280;27385;51.096;17.190;2022-10-16T12:38:03;100582.75;;;19.92;78.34
41706;BME280;27385;51.096;17.190;2022-10-16T12:40:38;100584.67;;;19.88;77.97
41706;BME280;27385;51.096;17.190;2022-10-16T12:43:39;100588.35;;;19.82;78.10
41706;BME280;27385;51.096;17.190;2022-10-16T12:46:37;100594.89;;;19.74;77.91
41706;BME280;27385;51.096;17.190;2022-10-16T12:49:30;100594.25;;;19.68;77.95
41706;BME280;27385;51.096;17.190;2022-10-16T12:52:02;100597.05;;;19.63;77.90
41706;BME280;27385;51.096;17.190;2022-10-16T12:54:37;100595.80;;;19.59;77.98
41706;BME280;27385;51.096;17.190;2022-10-16T12:57:23;100596.26;;;19.56;78.25
41706;BME280;27385;51.096;17.190;2022-10-16T13:00:04;100601.12;;;19.54;78.35
41706;BME280;27385;51.096;17.190;2022-10-16T13:05:48;100599.38;;;19.54;78.33
41706;BME280;27385;51.096;17.190;2022-10-16T13:08:38;100602.05;;;19.54;78.33
41706;BME280;27385;51.096;17.190;2022-10-16T13:11:20;100601.77;;;19.52;78.21
41706;BME280;27385;51.096;17.190;2022-10-16T13:14:22;100602.86;;;19.50;78.26
41706;BME280;27385;51.096;17.190;2022-10-16T13:17:04;100613.36;;;19.49;78.29
41706;BME280;27385;51.096;17.190;2022-10-16T13:19:44;100609.89;;;19.48;78.11
41706;BME280;27385;51.096;17.190;2022-10-16T13:22:21;100613.40;;;19.48;78.33
41706;BME280;27385;51.096;17.190;2022-10-16T13:25:12;100608.08;;;19.48;78.33
41706;BME280;27385;51.096;17.190;2022-10-16T13:27:54;100607.05;;;19.48;78.51
41706;BME280;27385;51.096;17.190;2022-10-16T13:30:38;100611.39;;;19.48;78.58
41706;BME280;27385;51.096;17.190;2022-10-16T13:33:17;100620.67;;;19.47;78.42